createdAt,value
2022-09-23T00:00:09.531Z,99.90
2022-09-23T00:02:14.576Z,99.90
2022-09-23T00:04:16.902Z,99.90
2022-09-23T00:06:20.722Z,99.90
2022-09-23T00:08:23.072Z,99.90
2022-09-23T00:10:27.634Z,99.90
2022-09-23T00:12:29.982Z,99.90
2022-09-23T00:14:32.313Z,99.90
2022-09-23T00:16:38.894Z,99.90
2022-09-23T00:18:44.655Z,99.90
2022-09-23T00:20:47.019Z,99.90
2022-09-23T00:22:51.734Z,99.90
2022-09-23T00:24:53.985Z,99.90
2022-09-23T00:26:56.204Z,99.90
2022-09-23T00:28:58.519Z,99.90
2022-09-23T00:31:03.141Z,99.90
2022-09-23T00:33:08.066Z,99.90
2022-09-23T00:35:12.665Z,99.90
2022-09-23T00:37:14.919Z,99.90
2022-09-23T00:39:20.305Z,99.90
2022-09-23T00:41:22.964Z,99.90
2022-09-23T00:43:40.417Z,99.90
2022-09-23T00:45:47.008Z,99.90
2022-09-23T00:47:54.880Z,99.90
2022-09-23T00:50:06.502Z,99.90
2022-09-23T00:52:20.136Z,99.90
2022-09-23T00:54:24.791Z,99.90
2022-09-23T00:56:27.121Z,99.90
2022-09-23T00:58:34.111Z,99.90
2022-09-23T01:00:36.695Z,99.90
2022-09-23T01:02:42.346Z,99.90
2022-09-23T01:04:45.244Z,99.90
2022-09-23T01:06:50.211Z,99.90
2022-09-23T01:08:55.677Z,99.90
2022-09-23T01:11:08.216Z,99.90
2022-09-23T01:13:17.408Z,99.90
2022-09-23T01:15:25.056Z,99.90
2022-09-23T01:17:34.592Z,99.90
2022-09-23T01:20:05.822Z,99.90
2022-09-23T01:22:17.493Z,99.90
2022-09-23T01:24:45.486Z,99.90
2022-09-23T01:26:59.995Z,99.90
2022-09-23T01:29:19.088Z,99.90
2022-09-23T01:31:30.046Z,99.90
2022-09-23T01:33:40.200Z,99.90
2022-09-23T01:36:19.061Z,99.90
2022-09-23T01:38:32.879Z,99.90
2022-09-23T01:40:45.435Z,99.90
2022-09-23T01:42:54.024Z,99.90
2022-09-23T01:45:00.982Z,99.90
2022-09-23T01:47:11.016Z,99.90
2022-09-23T01:49:18.315Z,99.90
2022-09-23T01:51:25.366Z,99.90
2022-09-23T01:53:34.929Z,99.90
2022-09-23T01:55:45.418Z,99.90
2022-09-23T01:57:58.138Z,99.90
2022-09-23T02:00:05.624Z,99.90
2022-09-23T02:02:15.431Z,99.90
2022-09-23T02:04:23.982Z,99.90
2022-09-23T02:06:30.217Z,99.90
2022-09-23T02:08:37.806Z,99.90
2022-09-23T02:10:44.715Z,99.90
2022-09-23T02:12:49.992Z,99.90
2022-09-23T02:14:57.891Z,99.90
2022-09-23T02:17:04.845Z,99.90
2022-09-23T02:19:13.611Z,99.90
2022-09-23T02:21:17.907Z,99.90
2022-09-23T02:23:32.867Z,99.90
2022-09-23T02:25:43.133Z,99.90
2022-09-23T02:27:53.062Z,99.90
2022-09-23T02:30:01.663Z,99.90
2022-09-23T02:32:13.840Z,99.90
2022-09-23T02:34:28.630Z,99.90
2022-09-23T02:36:36.901Z,99.90
2022-09-23T02:38:44.706Z,99.90
2022-09-23T02:40:58.754Z,99.90
2022-09-23T02:43:12.502Z,99.90
2022-09-23T02:45:15.066Z,99.90
2022-09-23T02:47:23.166Z,99.90
2022-09-23T02:49:29.888Z,99.90
2022-09-23T02:51:37.885Z,99.90
2022-09-23T02:53:40.365Z,99.90
2022-09-23T02:55:42.973Z,99.90
2022-09-23T02:57:45.864Z,99.90
2022-09-23T02:59:48.204Z,99.90
2022-09-23T03:02:15.631Z,99.90
2022-09-23T03:04:27.340Z,99.90
2022-09-23T03:06:38.866Z,99.90
2022-09-23T03:08:50.511Z,99.90
2022-09-23T03:11:04.401Z,99.90
2022-09-23T03:13:17.570Z,99.90
2022-09-23T03:15:25.190Z,99.90
2022-09-23T03:17:34.997Z,99.90
2022-09-23T03:19:42.831Z,99.90
2022-09-23T03:21:53.288Z,99.90
2022-09-23T03:23:59.547Z,99.90
2022-09-23T03:26:06.045Z,99.90
2022-09-23T03:28:09.886Z,99.90
2022-09-23T03:30:13.816Z,99.90
2022-09-23T03:32:21.098Z,99.90
2022-09-23T03:34:27.021Z,99.90
2022-09-23T03:36:52.026Z,99.90
2022-09-23T03:39:03.884Z,99.90
2022-09-23T03:41:10.746Z,99.90
2022-09-23T03:43:13.429Z,99.90
2022-09-23T03:45:19.120Z,99.90
2022-09-23T03:47:21.956Z,99.90
2022-09-23T03:49:27.375Z,99.90
2022-09-23T03:51:29.738Z,99.90
2022-09-23T03:53:31.982Z,99.90
2022-09-23T03:55:39.456Z,99.90
2022-09-23T03:57:41.853Z,99.90
2022-09-23T03:59:44.416Z,99.90
2022-09-23T04:01:46.735Z,99.90
2022-09-23T04:03:49.246Z,99.90
2022-09-23T04:05:51.915Z,99.90
2022-09-23T04:07:56.966Z,99.90
2022-09-23T04:09:59.453Z,99.90
2022-09-23T04:12:05.006Z,99.90
2022-09-23T04:14:08.095Z,99.90
2022-09-23T04:16:10.372Z,99.90
2022-09-23T04:18:12.634Z,99.90
2022-09-23T04:20:15.365Z,99.90
2022-09-23T04:22:17.670Z,99.90
2022-09-23T04:24:20.227Z,99.90
2022-09-23T04:26:22.437Z,99.90
2022-09-23T04:28:27.518Z,99.90
2022-09-23T04:30:29.784Z,99.90
2022-09-23T04:32:32.056Z,99.90
2022-09-23T04:34:34.364Z,99.90
2022-09-23T04:36:36.903Z,99.90
2022-09-23T04:38:39.258Z,99.90
2022-09-23T04:40:41.770Z,99.90
2022-09-23T04:42:44.999Z,99.90
2022-09-23T04:44:52.732Z,99.90
2022-09-23T04:46:55.360Z,99.90
2022-09-23T04:48:57.892Z,99.90
2022-09-23T04:51:03.406Z,99.90
2022-09-23T04:53:06.538Z,99.90
2022-09-23T04:55:11.321Z,99.90
2022-09-23T04:57:14.486Z,99.90
2022-09-23T04:59:18.312Z,99.90
2022-09-23T05:01:25.363Z,99.90
2022-09-23T05:03:27.690Z,99.90
2022-09-23T05:05:31.175Z,99.90
2022-09-23T05:07:33.490Z,99.90
2022-09-23T05:09:39.137Z,99.90
2022-09-23T05:11:41.370Z,99.90
2022-09-23T05:13:46.429Z,99.90
2022-09-23T05:15:48.925Z,99.90
2022-09-23T05:17:57.009Z,99.90
2022-09-23T05:19:59.510Z,99.90
2022-09-23T05:22:01.891Z,99.90
2022-09-23T05:24:04.940Z,99.90
2022-09-23T05:26:09.209Z,99.90
2022-09-23T05:28:13.713Z,99.90
2022-09-23T05:30:18.025Z,99.90
2022-09-23T05:32:20.408Z,99.90
2022-09-23T05:34:25.308Z,99.90
2022-09-23T05:36:33.071Z,99.90
2022-09-23T05:38:38.706Z,99.90
2022-09-23T05:40:41.039Z,99.90
2022-09-23T05:42:44.227Z,99.90
2022-09-23T05:44:47.241Z,99.90
2022-09-23T05:46:49.722Z,99.90
2022-09-23T05:48:59.861Z,99.90
2022-09-23T05:51:13.036Z,99.90
2022-09-23T05:53:15.431Z,99.90
2022-09-23T05:55:17.799Z,99.90
2022-09-23T05:57:21.111Z,99.90
2022-09-23T05:59:26.119Z,99.90
2022-09-23T06:01:33.565Z,99.90
2022-09-23T06:03:36.491Z,99.90
2022-09-23T06:05:38.712Z,99.90
2022-09-23T06:07:43.562Z,99.90
2022-09-23T06:09:45.943Z,99.90
2022-09-23T06:11:48.311Z,99.90
2022-09-23T06:13:55.136Z,99.90
2022-09-23T06:15:58.575Z,99.90
2022-09-23T06:18:01.433Z,99.90
2022-09-23T06:20:05.442Z,99.90
2022-09-23T06:22:11.023Z,99.90
2022-09-23T06:24:19.937Z,99.90
2022-09-23T06:26:24.478Z,99.90
2022-09-23T06:28:30.255Z,99.90
2022-09-23T06:30:34.853Z,99.90
2022-09-23T06:32:37.248Z,99.90
2022-09-23T06:34:50.706Z,99.90
2022-09-23T06:36:55.614Z,99.90
2022-09-23T06:38:57.981Z,99.90
2022-09-23T06:41:03.534Z,99.90
2022-09-23T06:43:07.787Z,99.90
2022-09-23T06:45:13.272Z,99.90
2022-09-23T06:47:15.528Z,99.90
2022-09-23T06:49:20.855Z,99.90
2022-09-23T06:51:23.174Z,99.90
2022-09-23T06:53:25.915Z,99.90
2022-09-23T06:55:28.272Z,99.90
2022-09-23T06:57:34.226Z,99.90
2022-09-23T06:59:36.493Z,99.90
2022-09-23T07:01:39.147Z,99.90
2022-09-23T07:03:42.281Z,99.90
2022-09-23T07:05:52.178Z,99.90
2022-09-23T07:07:54.697Z,99.90
2022-09-23T07:09:56.916Z,99.90
2022-09-23T07:11:59.233Z,99.90
2022-09-23T07:14:06.708Z,99.90
2022-09-23T07:16:10.087Z,99.90
2022-09-23T07:18:17.950Z,99.90
2022-09-23T07:20:20.289Z,99.90
2022-09-23T07:22:23.436Z,99.90
2022-09-23T07:24:25.772Z,99.90
2022-09-23T07:26:29.608Z,99.90
2022-09-23T07:28:32.283Z,99.90
2022-09-23T07:30:46.438Z,99.90
2022-09-23T07:32:54.312Z,99.90
2022-09-23T07:34:59.707Z,99.90
2022-09-23T07:37:02.867Z,99.90
2022-09-23T07:39:05.285Z,99.90
2022-09-23T07:41:10.337Z,99.90
2022-09-23T07:43:16.006Z,99.90
2022-09-23T07:45:18.525Z,99.90
2022-09-23T07:47:25.655Z,99.90
2022-09-23T07:49:28.119Z,99.90
2022-09-23T07:51:36.009Z,99.90
2022-09-23T07:53:38.519Z,99.90
2022-09-23T07:55:43.628Z,99.90
2022-09-23T07:57:46.488Z,99.90
2022-09-23T07:59:48.986Z,99.90
2022-09-23T08:01:55.574Z,99.90
2022-09-23T08:04:02.967Z,99.90
2022-09-23T08:06:07.600Z,99.90
2022-09-23T08:08:10.425Z,99.90
2022-09-23T08:10:12.877Z,99.90
2022-09-23T08:12:17.819Z,99.90
2022-09-23T08:14:22.372Z,99.90
2022-09-23T08:16:24.823Z,99.90
2022-09-23T08:18:27.519Z,99.90
2022-09-23T08:20:48.150Z,99.90
2022-09-23T08:22:51.001Z,99.90
2022-09-23T08:24:55.299Z,99.90
2022-09-23T08:27:02.158Z,99.90
2022-09-23T08:29:06.938Z,99.90
2022-09-23T08:31:09.382Z,99.90
2022-09-23T08:33:12.177Z,99.90
2022-09-23T08:35:14.860Z,99.90
2022-09-23T08:37:20.174Z,99.90
2022-09-23T08:39:23.228Z,99.90
2022-09-23T08:41:37.327Z,99.90
2022-09-23T08:43:47.475Z,99.90
2022-09-23T08:45:54.367Z,99.90
2022-09-23T08:48:02.153Z,99.90
2022-09-23T08:50:08.331Z,99.90
2022-09-23T08:52:17.875Z,99.90
2022-09-23T08:54:24.626Z,99.90
2022-09-23T08:56:29.121Z,99.90
2022-09-23T08:58:53.636Z,99.90
2022-09-23T09:01:07.131Z,99.90
2022-09-23T09:03:20.372Z,99.90
2022-09-23T09:05:26.341Z,99.90
2022-09-23T09:07:38.400Z,99.90
2022-09-23T09:09:48.874Z,99.90
2022-09-23T09:11:57.941Z,99.90
2022-09-23T09:14:04.933Z,99.90
2022-09-23T09:16:36.334Z,99.90
2022-09-23T09:18:50.702Z,99.90
2022-09-23T09:20:59.798Z,99.90
2022-09-23T09:23:14.242Z,99.90
2022-09-23T09:25:33.498Z,99.90
2022-09-23T09:27:40.656Z,99.90
2022-09-23T09:29:49.887Z,99.90
2022-09-23T09:31:52.602Z,99.90
2022-09-23T09:34:03.320Z,99.90
2022-09-23T09:36:18.808Z,99.90
2022-09-23T09:38:22.101Z,99.90
2022-09-23T09:40:27.045Z,99.90
2022-09-23T09:42:40.888Z,99.90
2022-09-23T09:44:50.663Z,99.90
2022-09-23T09:47:02.075Z,99.90
2022-09-23T09:49:12.139Z,99.90
2022-09-23T09:51:20.537Z,99.90
2022-09-23T09:53:25.854Z,99.90
2022-09-23T09:55:30.868Z,99.90
2022-09-23T09:57:38.470Z,99.90
2022-09-23T09:59:43.134Z,99.90
2022-09-23T10:01:48.811Z,99.90
2022-09-23T10:03:57.066Z,99.90
2022-09-23T10:06:14.550Z,99.90
2022-09-23T10:08:24.854Z,99.90
2022-09-23T10:10:33.569Z,99.80
2022-09-23T10:12:44.633Z,99.90
2022-09-23T10:14:51.902Z,99.90
2022-09-23T10:17:05.509Z,99.80
2022-09-23T10:19:17.253Z,99.70
2022-09-23T10:21:27.799Z,99.90
2022-09-23T10:23:33.396Z,99.50
2022-09-23T10:25:38.510Z,99.40
2022-09-23T10:27:40.885Z,99.10
2022-09-23T10:29:50.902Z,99.30
2022-09-23T10:32:28.614Z,98.90
2022-09-23T10:34:35.051Z,98.20
2022-09-23T10:36:41.187Z,98.70
2022-09-23T10:39:20.294Z,98.70
2022-09-23T10:41:54.879Z,97.80
2022-09-23T10:44:08.268Z,97.60
2022-09-23T10:46:38.426Z,97.90
2022-09-23T10:48:53.356Z,97.70
2022-09-23T10:50:59.515Z,97.50
2022-09-23T10:53:12.349Z,97.70
2022-09-23T10:55:36.973Z,97.50
2022-09-23T10:57:55.479Z,97.60
2022-09-23T11:00:04.707Z,97.50
2022-09-23T11:02:30.111Z,97.40
2022-09-23T11:05:01.035Z,97.50
2022-09-23T11:07:14.289Z,97.60
2022-09-23T11:09:29.015Z,97.60
2022-09-23T11:11:46.458Z,97.60
2022-09-23T11:14:17.251Z,97.20
2022-09-23T11:16:36.294Z,97.30
2022-09-23T11:18:55.837Z,96.90
2022-09-23T11:21:09.110Z,96.50
2022-09-23T11:23:51.308Z,96.90
2022-09-23T11:26:02.487Z,97.30
2022-09-23T11:28:29.619Z,96.70
2022-09-23T11:30:44.657Z,96.50
2022-09-23T11:33:06.067Z,96.70
2022-09-23T11:35:16.809Z,97.10
2022-09-23T11:37:23.180Z,97.20
2022-09-23T11:39:29.960Z,97.30
2022-09-23T11:41:37.598Z,97.50
2022-09-23T11:43:49.565Z,97.60
2022-09-23T11:45:58.742Z,97.60
2022-09-23T11:48:09.105Z,97.60
2022-09-23T11:50:18.955Z,97.40
2022-09-23T11:52:26.460Z,97.50
2022-09-23T11:54:34.954Z,97.60
2022-09-23T11:56:45.611Z,97.90
2022-09-23T11:59:00.076Z,98.00
2022-09-23T12:01:28.740Z,97.90
2022-09-23T12:03:48.346Z,97.90
2022-09-23T12:05:58.887Z,97.90
2022-09-23T12:08:07.123Z,97.80
2022-09-23T12:10:11.939Z,97.90
2022-09-23T12:12:23.908Z,98.00
2022-09-23T12:14:35.543Z,98.10
2022-09-23T12:17:16.888Z,98.20
2022-09-23T12:19:37.171Z,98.00
2022-09-23T12:22:04.149Z,97.90
2022-09-23T12:24:26.677Z,97.80
2022-09-23T12:26:30.418Z,98.00
2022-09-23T12:28:36.205Z,98.10
2022-09-23T12:30:40.727Z,98.50
2022-09-23T12:32:46.332Z,98.10
2022-09-23T12:34:54.385Z,97.90
2022-09-23T12:37:03.372Z,98.10
2022-09-23T12:39:13.673Z,98.00
2022-09-23T12:41:24.253Z,97.90
2022-09-23T12:43:33.084Z,98.10
2022-09-23T12:45:43.096Z,98.10
2022-09-23T12:47:48.352Z,98.20
2022-09-23T12:49:53.278Z,98.00
2022-09-23T12:52:25.401Z,97.60
2022-09-23T12:54:27.837Z,97.60
2022-09-23T12:56:58.797Z,97.70
2022-09-23T12:59:11.419Z,97.80
2022-09-23T13:01:19.307Z,97.80
2022-09-23T13:03:53.326Z,97.70
2022-09-23T13:06:19.988Z,98.00
2022-09-23T13:08:25.297Z,98.00
2022-09-23T13:10:30.514Z,98.00
2022-09-23T13:12:38.413Z,98.00
2022-09-23T13:14:45.516Z,98.30
2022-09-23T13:16:49.157Z,98.30
2022-09-23T13:18:59.904Z,98.40
2022-09-23T13:21:16.994Z,98.60
2022-09-23T13:23:24.421Z,98.70
2022-09-23T13:25:28.902Z,98.70
2022-09-23T13:27:34.066Z,98.90
2022-09-23T13:29:41.146Z,99.10
2022-09-23T13:31:45.530Z,99.30
2022-09-23T13:33:53.358Z,99.40
2022-09-23T13:36:04.112Z,99.70
2022-09-23T13:38:18.708Z,99.60
2022-09-23T13:40:24.004Z,99.80
2022-09-23T13:42:33.366Z,99.90
2022-09-23T13:44:46.222Z,99.90
2022-09-23T13:46:51.699Z,99.90
2022-09-23T13:48:55.386Z,99.90
2022-09-23T13:51:10.210Z,99.90
2022-09-23T13:53:18.149Z,99.90
2022-09-23T13:55:34.129Z,99.90
2022-09-23T13:57:36.986Z,99.90
2022-09-23T13:59:42.326Z,99.90
2022-09-23T14:01:45.630Z,99.90
2022-09-23T14:03:48.189Z,99.90
2022-09-23T14:05:52.121Z,99.90
2022-09-23T14:07:57.144Z,99.90
2022-09-23T14:10:02.165Z,99.90
2022-09-23T14:12:06.702Z,99.90
2022-09-23T14:14:15.366Z,99.90
2022-09-23T14:16:18.245Z,99.90
2022-09-23T14:18:29.000Z,99.90
2022-09-23T14:20:31.463Z,99.90
2022-09-23T14:22:33.725Z,99.90
2022-09-23T14:24:44.895Z,99.90
2022-09-23T14:26:49.582Z,99.90
2022-09-23T14:28:52.869Z,99.90
2022-09-23T14:30:57.942Z,99.90
2022-09-23T14:33:08.850Z,99.90
2022-09-23T14:35:20.312Z,99.90
2022-09-23T14:37:48.057Z,99.90
2022-09-23T14:39:57.838Z,99.90
2022-09-23T14:42:00.584Z,99.90
2022-09-23T14:44:04.506Z,99.90
2022-09-23T14:46:16.273Z,99.90
2022-09-23T14:48:26.816Z,99.90
2022-09-23T14:50:38.161Z,99.90
2022-09-23T14:52:49.183Z,99.90
2022-09-23T14:54:57.049Z,99.90
2022-09-23T14:57:00.433Z,99.90
2022-09-23T14:59:02.754Z,99.90
2022-09-23T15:01:26.160Z,99.90
2022-09-23T15:03:29.070Z,99.90
2022-09-23T15:05:39.255Z,99.90
2022-09-23T15:07:45.608Z,99.90
2022-09-23T15:09:50.937Z,99.90
2022-09-23T15:12:01.278Z,99.90
2022-09-23T15:14:33.105Z,99.90
2022-09-23T15:16:28.738Z,99.90
2022-09-23T15:18:34.148Z,99.90
2022-09-23T15:20:36.753Z,99.90
2022-09-23T15:22:44.625Z,99.90
2022-09-23T15:24:47.408Z,99.90
2022-09-23T15:26:51.420Z,99.90
2022-09-23T15:28:58.491Z,99.90
2022-09-23T15:31:01.258Z,99.90
2022-09-23T15:33:04.193Z,99.90
2022-09-23T15:35:07.908Z,99.90
2022-09-23T15:37:12.739Z,99.90
2022-09-23T15:39:15.456Z,99.90
2022-09-23T15:41:26.754Z,99.90
2022-09-23T15:43:33.995Z,99.90
2022-09-23T15:45:44.693Z,99.90
2022-09-23T15:47:50.761Z,99.90
2022-09-23T15:49:55.849Z,99.90
2022-09-23T15:52:00.284Z,99.90
2022-09-23T15:54:04.174Z,99.90
2022-09-23T15:56:06.555Z,99.90
2022-09-23T15:58:08.930Z,99.90
2022-09-23T16:00:16.099Z,99.90
2022-09-23T16:02:24.308Z,99.90
2022-09-23T16:06:36.151Z,99.90
2022-09-23T16:08:42.285Z,99.90
2022-09-23T16:10:47.884Z,99.90
2022-09-23T16:12:52.214Z,99.90
2022-09-23T16:14:54.598Z,99.90
2022-09-23T16:16:57.651Z,99.90
2022-09-23T16:19:02.762Z,99.90
2022-09-23T16:21:07.829Z,99.90
2022-09-23T16:23:20.956Z,99.90
2022-09-23T16:25:29.259Z,99.90
2022-09-23T16:27:34.193Z,99.90
2022-09-23T16:29:36.569Z,99.90
2022-09-23T16:31:41.249Z,99.90
2022-09-23T16:33:47.351Z,99.90
2022-09-23T16:35:52.573Z,99.90
2022-09-23T16:37:55.835Z,99.90
2022-09-23T16:39:59.506Z,99.90
2022-09-23T16:42:02.337Z,99.90
2022-09-23T16:44:09.403Z,99.90
2022-09-23T16:46:13.282Z,99.90
2022-09-23T16:48:19.806Z,99.90
2022-09-23T16:50:23.478Z,99.90
2022-09-23T16:52:31.202Z,99.90
2022-09-23T16:54:37.513Z,99.90
2022-09-23T16:56:44.280Z,99.90
2022-09-23T16:58:49.478Z,99.90
2022-09-23T17:01:16.425Z,99.90
2022-09-23T17:03:37.422Z,99.90
2022-09-23T17:05:39.857Z,99.90
2022-09-23T17:07:45.027Z,99.90
2022-09-23T17:09:47.509Z,99.90
2022-09-23T17:11:58.024Z,99.90
2022-09-23T17:14:00.992Z,99.90
2022-09-23T17:16:03.737Z,99.90
2022-09-23T17:18:09.824Z,99.90
2022-09-23T17:20:14.300Z,99.90
2022-09-23T17:22:16.680Z,99.90
2022-09-23T17:24:25.342Z,99.90
2022-09-23T17:26:28.301Z,99.90
2022-09-23T17:28:37.549Z,99.90
2022-09-23T17:30:40.719Z,99.90
2022-09-23T17:32:43.427Z,99.90
2022-09-23T17:34:45.817Z,99.90
2022-09-23T17:36:48.600Z,99.90
2022-09-23T17:38:54.536Z,99.90
2022-09-23T17:41:01.422Z,99.90
2022-09-23T17:43:06.313Z,99.90
2022-09-23T17:45:10.507Z,99.90
2022-09-23T17:47:12.698Z,99.90
2022-09-23T17:49:17.819Z,99.90
2022-09-23T17:51:24.126Z,99.90
2022-09-23T17:53:28.896Z,99.90
2022-09-23T17:55:33.333Z,99.90
2022-09-23T17:57:38.359Z,99.90
2022-09-23T17:59:40.793Z,99.90
2022-09-23T18:01:43.501Z,99.90
2022-09-23T18:03:56.989Z,99.90
2022-09-23T18:06:07.600Z,99.90
2022-09-23T18:08:13.300Z,99.90
2022-09-23T18:10:15.804Z,99.90
2022-09-23T18:12:20.379Z,99.90
2022-09-23T18:14:26.239Z,99.90
2022-09-23T18:16:30.984Z,99.90
2022-09-23T18:18:38.796Z,99.90
2022-09-23T18:20:47.351Z,99.90
2022-09-23T18:22:56.539Z,99.90
2022-09-23T18:25:22.745Z,99.90
2022-09-23T18:27:34.326Z,99.90
2022-09-23T18:29:43.865Z,99.90
2022-09-23T18:31:49.392Z,99.90
2022-09-23T18:33:53.069Z,99.90
2022-09-23T18:35:55.389Z,99.90
2022-09-23T18:37:57.863Z,99.90
2022-09-23T18:40:04.522Z,99.90
2022-09-23T18:42:06.905Z,99.90
2022-09-23T18:44:09.759Z,99.90
2022-09-23T18:46:19.108Z,99.90
2022-09-23T18:48:45.673Z,99.90
2022-09-23T18:50:49.343Z,99.90
2022-09-23T18:52:51.711Z,99.90
2022-09-23T18:54:55.040Z,99.90
2022-09-23T18:56:59.346Z,99.90
2022-09-23T18:59:01.935Z,99.90
2022-09-23T19:01:09.674Z,99.90
2022-09-23T19:03:18.049Z,99.90
2022-09-23T19:05:20.517Z,99.90
2022-09-23T19:07:22.940Z,99.90
2022-09-23T19:09:25.460Z,99.90
2022-09-23T19:11:28.097Z,99.90
2022-09-23T19:13:34.329Z,99.90
2022-09-23T19:15:36.670Z,99.90
2022-09-23T19:17:38.974Z,99.90
2022-09-23T19:19:46.666Z,99.90
2022-09-23T19:21:49.052Z,99.90
2022-09-23T19:23:53.763Z,99.90
2022-09-23T19:25:56.340Z,99.90
2022-09-23T19:27:58.615Z,99.90
2022-09-23T19:30:01.305Z,99.90
2022-09-23T19:32:03.705Z,99.90
2022-09-23T19:34:10.766Z,99.90
2022-09-23T19:36:17.352Z,99.90
2022-09-23T19:38:21.468Z,99.90
2022-09-23T19:40:27.207Z,99.90
2022-09-23T19:42:30.390Z,99.90
2022-09-23T19:44:32.907Z,99.90
2022-09-23T19:46:39.989Z,99.90
2022-09-23T19:48:45.621Z,99.90
2022-09-23T19:50:48.327Z,99.90
2022-09-23T19:52:53.231Z,99.90
2022-09-23T19:54:55.838Z,99.90
2022-09-23T19:56:59.498Z,99.90
2022-09-23T19:59:05.952Z,99.90
2022-09-23T20:01:08.544Z,99.90
2022-09-23T20:03:12.197Z,99.90
2022-09-23T20:05:19.654Z,99.90
2022-09-23T20:07:24.063Z,99.90
2022-09-23T20:09:29.284Z,99.90
2022-09-23T20:11:32.519Z,99.90
2022-09-23T20:13:37.422Z,99.90
2022-09-23T20:15:43.887Z,99.90
2022-09-23T20:17:46.257Z,99.90
2022-09-23T20:19:51.606Z,99.90
2022-09-23T20:22:15.105Z,99.90
2022-09-23T20:24:17.593Z,99.90
2022-09-23T20:26:41.530Z,99.90
2022-09-23T20:28:44.252Z,99.90
2022-09-23T20:30:46.673Z,99.90
2022-09-23T20:32:50.488Z,99.90
2022-09-23T20:34:53.607Z,99.90
2022-09-23T20:37:02.439Z,99.90
2022-09-23T20:39:06.197Z,99.90
2022-09-23T20:41:09.417Z,99.90
2022-09-23T20:43:16.199Z,99.90
2022-09-23T20:45:18.724Z,99.90
2022-09-23T20:47:23.830Z,99.90
2022-09-23T20:49:26.366Z,99.90
2022-09-23T20:51:28.893Z,99.90
2022-09-23T20:53:32.388Z,99.90
2022-09-23T20:55:34.734Z,99.90
2022-09-23T20:57:38.185Z,99.90
2022-09-23T20:59:43.667Z,99.90
2022-09-23T21:01:47.868Z,99.90
2022-09-23T21:03:52.422Z,99.90
2022-09-23T21:05:56.079Z,99.90
2022-09-23T21:08:02.789Z,99.90
2022-09-23T21:10:08.602Z,99.90
2022-09-23T21:12:11.529Z,99.90
2022-09-23T21:14:15.901Z,99.90
2022-09-23T21:16:22.853Z,99.90
2022-09-23T21:18:25.368Z,99.90
2022-09-23T21:20:28.451Z,99.90
2022-09-23T21:22:31.244Z,99.90
2022-09-23T21:25:03.841Z,99.90
2022-09-23T21:26:56.930Z,99.90
2022-09-23T21:29:01.235Z,99.90
2022-09-23T21:31:05.748Z,99.90
2022-09-23T21:33:11.284Z,99.90
2022-09-23T21:35:14.347Z,99.90
2022-09-23T21:37:16.673Z,99.90
2022-09-23T21:39:19.557Z,99.90
2022-09-23T21:41:25.099Z,99.90
2022-09-23T21:43:31.822Z,99.90
2022-09-23T21:45:34.249Z,99.90
2022-09-23T21:47:36.742Z,99.90
2022-09-23T21:49:41.725Z,99.90
2022-09-23T21:51:55.204Z,99.90
2022-09-23T21:53:58.448Z,99.90
2022-09-23T21:56:03.491Z,99.90
2022-09-23T21:58:06.680Z,99.90
2022-09-23T22:00:11.344Z,99.90
2022-09-23T22:02:13.598Z,99.90
2022-09-23T22:04:18.146Z,99.90
2022-09-23T22:06:26.917Z,99.90
2022-09-23T22:08:31.945Z,99.90
2022-09-23T22:10:35.707Z,99.90
2022-09-23T22:12:39.931Z,99.90
2022-09-23T22:14:44.356Z,99.90
2022-09-23T22:16:47.067Z,99.90
2022-09-23T22:18:51.100Z,99.90
2022-09-23T22:20:56.508Z,99.90
2022-09-23T22:23:08.360Z,99.90
2022-09-23T22:25:12.613Z,99.90
2022-09-23T22:27:15.465Z,99.90
2022-09-23T22:29:36.528Z,99.90
2022-09-23T22:31:57.766Z,99.90
2022-09-23T22:34:00.214Z,99.90
2022-09-23T22:36:03.831Z,99.90
2022-09-23T22:38:11.423Z,99.90
2022-09-23T22:40:18.985Z,99.90
2022-09-23T22:42:22.525Z,99.90
2022-09-23T22:44:28.302Z,99.90
2022-09-23T22:46:33.475Z,99.90
2022-09-23T22:48:38.520Z,99.90
2022-09-23T22:50:48.788Z,99.90
2022-09-23T22:52:51.942Z,99.90
2022-09-23T22:54:56.852Z,99.90
2022-09-23T22:57:01.284Z,99.90
2022-09-23T22:59:06.789Z,99.90
2022-09-23T23:01:11.451Z,99.90
2022-09-23T23:03:14.163Z,99.90
2022-09-23T23:05:16.896Z,99.90
2022-09-23T23:07:21.150Z,99.90
2022-09-23T23:09:23.644Z,99.90
2022-09-23T23:11:30.804Z,99.90
2022-09-23T23:13:34.402Z,99.90
2022-09-23T23:15:42.374Z,99.90
2022-09-23T23:17:45.007Z,99.90
2022-09-23T23:19:47.786Z,99.90
2022-09-23T23:21:50.584Z,99.90
2022-09-23T23:23:53.708Z,99.90
2022-09-23T23:25:56.176Z,99.90
2022-09-23T23:28:05.649Z,99.90
2022-09-23T23:30:11.772Z,99.90
2022-09-23T23:32:16.271Z,99.90
2022-09-23T23:34:23.046Z,99.90
2022-09-23T23:36:26.334Z,99.90
2022-09-23T23:38:28.877Z,99.90
2022-09-23T23:40:31.244Z,99.90
2022-09-23T23:42:34.687Z,99.90
2022-09-23T23:44:39.733Z,99.90
2022-09-23T23:46:42.109Z,99.90
2022-09-23T23:48:48.226Z,99.90
2022-09-23T23:50:54.776Z,99.90
2022-09-23T23:52:58.070Z,99.90
2022-09-23T23:55:03.950Z,99.90
2022-09-23T23:57:06.284Z,99.90
2022-09-23T23:59:10.402Z,99.90
